createdAt,value
2023-01-07T00:01:09.744Z,7.07
2023-01-07T00:03:38.838Z,7.90
2023-01-07T00:06:08.729Z,6.60
2023-01-07T00:08:38.590Z,7.00
2023-01-07T00:11:08.749Z,7.22
2023-01-07T00:13:38.668Z,6.65
2023-01-07T00:16:09.600Z,6.82
2023-01-07T00:18:38.422Z,6.10
2023-01-07T00:21:09.151Z,6.85
2023-01-07T00:23:37.878Z,8.20
2023-01-07T00:26:09.371Z,6.70
2023-01-07T00:28:41.470Z,8.00
2023-01-07T00:31:13.001Z,7.18
2023-01-07T00:33:51.672Z,7.25
2023-01-07T00:36:20.127Z,6.72
2023-01-07T00:38:48.863Z,7.43
2023-01-07T00:41:17.157Z,6.75
2023-01-07T00:43:48.483Z,6.65
2023-01-07T00:46:17.390Z,7.00
2023-01-07T00:48:45.857Z,6.68
2023-01-07T00:51:16.902Z,7.35
2023-01-07T00:53:45.398Z,6.97
2023-01-07T00:56:15.667Z,7.07
2023-01-07T00:58:44.927Z,6.40
2023-01-07T01:01:14.713Z,6.30
2023-01-07T01:03:43.772Z,6.68
2023-01-07T01:06:15.575Z,6.57
2023-01-07T01:08:46.116Z,6.57
2023-01-07T01:11:16.964Z,6.28
2023-01-07T01:13:47.176Z,5.97
2023-01-07T01:16:18.282Z,6.60
2023-01-07T01:18:47.408Z,7.03
2023-01-07T01:21:17.284Z,6.82
2023-01-07T01:23:45.834Z,7.05
2023-01-07T01:26:15.758Z,6.43
2023-01-07T01:28:44.656Z,6.50
2023-01-07T01:31:13.287Z,6.20
2023-01-07T01:33:43.003Z,6.22
2023-01-07T01:36:13.381Z,6.45
2023-01-07T01:38:43.958Z,6.53
2023-01-07T01:41:13.003Z,6.80
2023-01-07T01:43:42.947Z,6.78
2023-01-07T01:46:14.688Z,7.78
2023-01-07T01:48:47.980Z,7.47
2023-01-07T01:51:17.864Z,6.63
2023-01-07T01:53:46.277Z,7.13
2023-01-07T01:56:17.562Z,7.38
2023-01-07T01:58:49.240Z,7.38
2023-01-07T02:01:17.750Z,8.05
2023-01-07T02:03:47.915Z,8.05
2023-01-07T02:06:22.014Z,8.38
2023-01-07T02:08:53.218Z,8.02
2023-01-07T02:11:29.022Z,8.73
2023-01-07T02:14:08.529Z,8.60
2023-01-07T02:16:42.928Z,9.00
2023-01-07T02:19:27.969Z,8.60
2023-01-07T02:22:00.955Z,8.40
2023-01-07T02:24:54.974Z,9.35
2023-01-07T02:27:31.439Z,8.43
2023-01-07T02:30:30.285Z,9.15
2023-01-07T02:33:09.884Z,9.13
2023-01-07T02:35:49.467Z,9.98
2023-01-07T02:38:24.760Z,9.65
2023-01-07T02:40:59.135Z,10.20
2023-01-07T02:43:34.266Z,10.38
2023-01-07T02:46:06.417Z,10.95
2023-01-07T02:48:36.736Z,10.68
2023-01-07T02:51:05.049Z,12.95
2023-01-07T02:53:33.298Z,12.45
2023-01-07T02:56:15.371Z,11.48
2023-01-07T02:59:05.789Z,12.60
2023-01-07T03:01:43.641Z,12.23
2023-01-07T03:04:24.280Z,13.40
2023-01-07T03:07:00.236Z,13.07
2023-01-07T03:09:33.552Z,12.93
2023-01-07T03:12:14.609Z,12.85
2023-01-07T03:14:47.400Z,13.25
2023-01-07T03:17:18.957Z,12.70
2023-01-07T03:19:52.245Z,13.60
2023-01-07T03:22:22.410Z,13.55
2023-01-07T03:24:52.629Z,13.40
2023-01-07T03:27:23.009Z,14.30
2023-01-07T03:29:54.180Z,14.50
2023-01-07T03:32:27.130Z,13.60
2023-01-07T03:34:57.266Z,14.48
2023-01-07T03:37:27.014Z,13.88
2023-01-07T03:39:56.430Z,13.55
2023-01-07T03:42:41.123Z,14.00
2023-01-07T03:45:11.729Z,13.88
2023-01-07T03:47:42.249Z,15.10
2023-01-07T03:50:12.937Z,13.20
2023-01-07T03:52:41.097Z,15.50
2023-01-07T03:55:09.991Z,15.63
2023-01-07T03:57:38.570Z,14.85
2023-01-07T04:00:09.215Z,15.57
2023-01-07T04:02:37.356Z,15.85
2023-01-07T04:05:06.090Z,16.48
2023-01-07T04:07:36.573Z,15.82
2023-01-07T04:10:05.277Z,15.98
2023-01-07T04:12:33.670Z,16.73
2023-01-07T04:15:02.704Z,17.20
2023-01-07T04:17:32.620Z,16.90
2023-01-07T04:20:01.626Z,17.17
2023-01-07T04:22:30.273Z,16.15
2023-01-07T04:25:00.004Z,16.90
2023-01-07T04:27:29.958Z,15.98
2023-01-07T04:29:57.982Z,16.95
2023-01-07T04:32:26.125Z,15.68
2023-01-07T04:34:55.501Z,16.15
2023-01-07T04:37:23.717Z,17.00
2023-01-07T04:39:52.041Z,17.05
2023-01-07T04:42:22.727Z,16.27
2023-01-07T04:44:53.347Z,16.23
2023-01-07T04:47:21.453Z,17.17
2023-01-07T04:49:51.118Z,16.60
2023-01-07T04:52:19.530Z,17.25
2023-01-07T04:54:47.842Z,16.95
2023-01-07T04:57:16.438Z,16.05
2023-01-07T04:59:45.883Z,17.92
2023-01-07T05:02:14.165Z,16.65
2023-01-07T05:04:44.646Z,15.55
2023-01-07T05:07:12.725Z,15.88
2023-01-07T05:09:40.948Z,16.90
2023-01-07T05:12:09.091Z,17.08
2023-01-07T05:14:38.472Z,15.43
2023-01-07T05:17:09.486Z,15.80
2023-01-07T05:19:39.704Z,16.58
2023-01-07T05:22:08.852Z,15.65
2023-01-07T05:24:37.547Z,16.50
2023-01-07T05:27:05.858Z,16.88
2023-01-07T05:29:33.815Z,15.07
2023-01-07T05:32:02.592Z,15.57
2023-01-07T05:34:32.718Z,14.98
2023-01-07T05:37:01.808Z,17.17
2023-01-07T05:39:30.430Z,16.38
2023-01-07T05:41:58.974Z,16.25
2023-01-07T05:44:33.026Z,15.57
2023-01-07T05:47:02.321Z,16.10
2023-01-07T05:49:32.549Z,14.98
2023-01-07T05:52:01.937Z,15.00
2023-01-07T05:54:30.795Z,15.35
2023-01-07T05:57:01.290Z,13.88
2023-01-07T05:59:30.429Z,14.98
2023-01-07T06:01:58.459Z,15.43
2023-01-07T06:04:27.039Z,15.73
2023-01-07T06:06:58.214Z,14.43
2023-01-07T06:09:29.785Z,16.25
2023-01-07T06:11:58.483Z,14.20
2023-01-07T06:14:27.215Z,15.02
2023-01-07T06:16:56.546Z,15.38
2023-01-07T06:19:26.470Z,15.85
2023-01-07T06:21:55.969Z,16.48
2023-01-07T06:24:24.224Z,15.15
2023-01-07T06:26:52.296Z,13.93
2023-01-07T06:29:21.545Z,14.52
2023-01-07T06:31:50.973Z,15.23
2023-01-07T06:34:23.390Z,14.65
2023-01-07T06:36:51.580Z,16.50
2023-01-07T06:39:21.166Z,15.25
2023-01-07T06:41:49.720Z,16.15
2023-01-07T06:44:18.061Z,14.30
2023-01-07T06:46:46.235Z,14.63
2023-01-07T06:49:14.665Z,13.85
2023-01-07T06:51:42.691Z,14.77
2023-01-07T06:54:11.951Z,15.05
2023-01-07T06:56:41.584Z,14.95
2023-01-07T06:59:10.836Z,15.52
2023-01-07T07:01:38.983Z,14.35
2023-01-07T07:04:07.248Z,15.45
2023-01-07T07:06:35.485Z,14.43
2023-01-07T07:09:03.816Z,12.60
2023-01-07T07:11:32.032Z,14.85
2023-01-07T07:14:01.651Z,13.43
2023-01-07T07:16:32.586Z,13.07
2023-01-07T07:19:01.428Z,13.32
2023-01-07T07:21:29.672Z,13.98
2023-01-07T07:23:57.752Z,13.98
2023-01-07T07:26:27.370Z,13.75
2023-01-07T07:28:55.840Z,13.05
2023-01-07T07:31:25.595Z,12.98
2023-01-07T07:33:55.300Z,13.38
2023-01-07T07:36:23.844Z,14.07
2023-01-07T07:38:51.909Z,14.10
2023-01-07T07:41:20.246Z,12.88
2023-01-07T07:43:49.201Z,13.60
2023-01-07T07:46:17.265Z,12.23
2023-01-07T07:48:50.792Z,12.90
2023-01-07T07:51:19.787Z,12.90
2023-01-07T07:53:50.983Z,11.70
2023-01-07T07:56:19.685Z,11.05
2023-01-07T07:58:48.839Z,10.00
2023-01-07T08:01:17.463Z,9.35
2023-01-07T08:03:49.504Z,8.43
2023-01-07T08:06:17.969Z,8.32
2023-01-07T08:08:47.088Z,7.30
2023-01-07T08:11:21.215Z,8.65
2023-01-07T08:13:52.516Z,7.63
2023-01-07T08:16:22.700Z,7.97
2023-01-07T08:18:53.821Z,8.57
2023-01-07T08:21:24.060Z,7.45
2023-01-07T08:23:52.124Z,7.82
2023-01-07T08:26:21.633Z,7.15
2023-01-07T08:28:55.312Z,6.82
2023-01-07T08:31:25.675Z,7.55
2023-01-07T08:33:59.896Z,6.55
2023-01-07T08:36:28.730Z,7.55
2023-01-07T08:38:57.330Z,6.95
2023-01-07T08:41:29.612Z,7.30
2023-01-07T08:43:57.963Z,7.72
2023-01-07T08:46:26.271Z,7.07
2023-01-07T08:48:55.774Z,7.10
2023-01-07T08:51:23.760Z,6.82
2023-01-07T08:53:52.291Z,7.05
2023-01-07T08:56:20.538Z,7.50
2023-01-07T08:58:49.023Z,6.40
2023-01-07T09:01:17.176Z,7.00
2023-01-07T09:03:46.204Z,6.88
2023-01-07T09:06:15.699Z,6.50
2023-01-07T09:08:43.982Z,6.35
2023-01-07T09:11:11.998Z,6.88
2023-01-07T09:13:47.560Z,6.50
2023-01-07T09:16:23.881Z,6.75
2023-01-07T09:18:52.256Z,6.82
2023-01-07T09:21:24.654Z,6.38
2023-01-07T09:26:21.414Z,5.65
2023-01-07T09:28:51.023Z,6.75
2023-01-07T09:31:19.679Z,5.93
2023-01-07T09:33:47.850Z,6.75
2023-01-07T09:36:16.957Z,6.18
2023-01-07T09:38:49.143Z,6.55
2023-01-07T09:41:23.828Z,6.38
2023-01-07T09:44:00.428Z,5.75
2023-01-07T09:46:30.460Z,5.55
2023-01-07T09:49:02.351Z,5.32
2023-01-07T09:51:43.803Z,5.72
2023-01-07T09:54:23.492Z,4.85
2023-01-07T09:56:51.614Z,5.63
2023-01-07T09:59:21.567Z,4.65
2023-01-07T10:01:55.214Z,5.15
2023-01-07T10:04:30.170Z,4.80
2023-01-07T10:07:04.448Z,5.32
2023-01-07T10:09:51.367Z,4.80
2023-01-07T10:12:26.500Z,5.07
2023-01-07T10:15:16.661Z,4.93
2023-01-07T10:18:02.161Z,4.32
2023-01-07T10:20:37.903Z,5.00
2023-01-07T10:23:09.869Z,4.72
2023-01-07T10:25:44.229Z,5.20
2023-01-07T10:28:16.830Z,4.55
2023-01-07T10:30:46.455Z,3.65
2023-01-07T10:33:25.014Z,4.20
2023-01-07T10:36:01.376Z,3.83
2023-01-07T10:38:31.127Z,4.32
2023-01-07T10:41:08.337Z,3.75
2023-01-07T10:43:52.980Z,3.90
2023-01-07T10:46:34.589Z,4.03
2023-01-07T10:49:13.032Z,3.77
2023-01-07T10:51:52.224Z,3.42
2023-01-07T10:54:35.876Z,4.00
2023-01-07T10:57:08.266Z,3.35
2023-01-07T11:02:05.839Z,4.07
2023-01-07T11:04:34.131Z,3.10
2023-01-07T11:07:05.382Z,3.70
2023-01-07T11:09:36.629Z,3.17
2023-01-07T11:12:18.776Z,3.13
2023-01-07T11:14:49.569Z,3.28
2023-01-07T11:17:27.351Z,3.63
2023-01-07T11:19:56.486Z,3.65
2023-01-07T11:22:34.281Z,2.90
2023-01-07T11:25:03.248Z,2.60
2023-01-07T11:27:38.407Z,3.00
2023-01-07T11:30:10.998Z,2.50
2023-01-07T11:32:41.684Z,2.55
2023-01-07T11:35:22.839Z,2.30
2023-01-07T11:37:51.376Z,2.35
2023-01-07T11:40:27.656Z,3.08
2023-01-07T11:43:01.754Z,2.60
2023-01-07T11:45:33.217Z,3.03
2023-01-07T11:48:04.475Z,3.30
2023-01-07T11:50:37.166Z,3.17
2023-01-07T11:53:13.072Z,2.80
2023-01-07T11:55:44.409Z,2.75
2023-01-07T11:58:29.341Z,3.33
2023-01-07T12:01:26.693Z,3.00
2023-01-07T12:04:13.839Z,2.60
2023-01-07T12:06:43.960Z,2.72
2023-01-07T12:09:19.964Z,2.90
2023-01-07T12:11:48.007Z,3.05
2023-01-07T12:14:26.017Z,2.67
2023-01-07T12:16:55.263Z,2.97
2023-01-07T12:19:32.966Z,3.00
2023-01-07T12:22:09.924Z,2.22
2023-01-07T12:24:47.188Z,2.17
2023-01-07T12:27:24.078Z,2.03
2023-01-07T12:30:05.324Z,2.10
2023-01-07T12:32:47.275Z,2.08
2023-01-07T12:35:20.624Z,1.92
2023-01-07T12:37:53.112Z,2.28
2023-01-07T12:40:32.959Z,1.92
2023-01-07T12:43:05.925Z,1.65
2023-01-07T12:45:43.024Z,2.70
2023-01-07T12:48:16.972Z,2.67
2023-01-07T12:50:47.401Z,1.55
2023-01-07T12:53:19.420Z,2.33
2023-01-07T12:55:51.375Z,1.77
2023-01-07T12:58:27.604Z,1.80
2023-01-07T13:01:06.420Z,1.52
2023-01-07T13:03:44.364Z,1.77
2023-01-07T13:06:17.545Z,1.73
2023-01-07T13:08:52.073Z,1.75
2023-01-07T13:11:44.631Z,1.63
2023-01-07T13:14:19.834Z,1.83
2023-01-07T13:16:50.116Z,1.92
2023-01-07T13:19:18.640Z,1.60
2023-01-07T13:21:48.614Z,1.70
2023-01-07T13:24:56.001Z,2.17
2023-01-07T13:27:29.890Z,1.80
2023-01-07T13:30:11.713Z,1.90
2023-01-07T13:33:09.688Z,1.80
2023-01-07T13:35:56.407Z,3.58
2023-01-07T13:38:49.129Z,4.95
2023-01-07T13:41:29.472Z,2.35
2023-01-07T13:44:21.404Z,1.98
2023-01-07T13:46:49.842Z,2.20
2023-01-07T13:49:28.549Z,2.00
2023-01-07T13:51:57.270Z,2.20
2023-01-07T13:55:00.627Z,2.10
2023-01-07T13:57:43.892Z,2.17
2023-01-07T14:00:40.207Z,2.50
2023-01-07T14:03:37.008Z,2.08
2023-01-07T14:06:42.548Z,2.50
2023-01-07T14:09:23.710Z,2.65
2023-01-07T14:12:26.544Z,3.30
2023-01-07T14:15:25.382Z,2.13
2023-01-07T14:18:08.135Z,1.85
2023-01-07T14:20:45.587Z,2.08
2023-01-07T14:23:24.811Z,1.88
2023-01-07T14:29:27.041Z,1.92
2023-01-07T14:32:14.014Z,1.98
2023-01-07T14:34:42.417Z,2.05
2023-01-07T14:37:31.613Z,1.73
2023-01-07T14:39:59.959Z,1.90
2023-01-07T14:42:41.951Z,1.90
2023-01-07T14:45:47.734Z,2.00
2023-01-07T14:48:34.857Z,2.10
2023-01-07T14:51:28.705Z,1.95
2023-01-07T14:54:17.758Z,2.30
2023-01-07T14:56:55.132Z,1.77
2023-01-07T14:59:32.455Z,1.92
2023-01-07T15:02:28.005Z,2.17
2023-01-07T15:05:06.968Z,2.15
2023-01-07T15:07:37.661Z,2.47
2023-01-07T15:10:33.458Z,2.67
2023-01-07T15:13:19.245Z,1.90
2023-01-07T15:16:04.036Z,2.28
2023-01-07T15:18:34.523Z,2.33
2023-01-07T15:21:19.104Z,1.85
2023-01-07T15:23:52.125Z,2.08
2023-01-07T15:26:23.703Z,2.42
2023-01-07T15:28:57.893Z,2.05
2023-01-07T15:31:30.326Z,2.00
2023-01-07T15:34:02.411Z,2.20
2023-01-07T15:36:33.115Z,2.28
2023-01-07T15:39:02.222Z,2.25
2023-01-07T15:41:32.684Z,2.10
2023-01-07T15:44:03.345Z,2.00
2023-01-07T15:46:32.343Z,2.25
2023-01-07T15:49:22.410Z,1.98
2023-01-07T15:51:54.532Z,2.25
2023-01-07T15:54:30.503Z,3.70
2023-01-07T15:57:01.284Z,2.25
2023-01-07T15:59:31.514Z,2.00
2023-01-07T16:02:07.405Z,1.40
2023-01-07T16:04:37.233Z,2.10
2023-01-07T16:07:06.747Z,1.65
2023-01-07T16:09:35.189Z,1.90
2023-01-07T16:12:03.457Z,2.08
2023-01-07T16:14:37.175Z,2.00
2023-01-07T16:17:11.751Z,1.80
2023-01-07T16:19:39.895Z,2.53
2023-01-07T16:22:12.922Z,1.85
2023-01-07T16:24:47.723Z,1.90
2023-01-07T16:27:16.511Z,2.13
2023-01-07T16:29:51.192Z,2.30
2023-01-07T16:32:20.038Z,1.95
2023-01-07T16:34:57.220Z,2.20
2023-01-07T16:37:27.027Z,2.38
2023-01-07T16:39:55.396Z,2.60
2023-01-07T16:42:27.425Z,2.28
2023-01-07T16:45:00.749Z,1.90
2023-01-07T16:47:30.463Z,1.75
2023-01-07T16:50:00.327Z,1.88
2023-01-07T16:52:33.969Z,2.03
2023-01-07T16:55:02.274Z,2.05
2023-01-07T16:57:34.218Z,2.33
2023-01-07T17:00:04.370Z,2.30
2023-01-07T17:02:35.250Z,2.22
2023-01-07T17:05:18.575Z,2.28
2023-01-07T17:07:49.961Z,1.70
2023-01-07T17:10:22.271Z,2.22
2023-01-07T17:15:35.330Z,1.58
2023-01-07T17:18:27.502Z,2.00
2023-01-07T17:20:57.621Z,1.85
2023-01-07T17:23:45.561Z,2.10
2023-01-07T17:26:18.860Z,1.50
2023-01-07T17:28:48.571Z,2.05
2023-01-07T17:31:16.763Z,2.30
2023-01-07T17:33:44.968Z,2.42
2023-01-07T17:36:16.366Z,1.85
2023-01-07T17:38:45.893Z,2.00
2023-01-07T17:41:35.313Z,2.40
2023-01-07T17:44:02.823Z,1.90
2023-01-07T17:46:31.083Z,1.98
2023-01-07T17:48:59.922Z,2.40
2023-01-07T17:51:28.548Z,2.35
2023-01-07T17:53:59.406Z,1.75
2023-01-07T17:56:27.385Z,2.20
2023-01-07T17:58:56.274Z,1.92
2023-01-07T18:01:26.244Z,1.85
2023-01-07T18:03:55.661Z,2.55
2023-01-07T18:06:25.777Z,2.17
2023-01-07T18:08:55.204Z,2.70
2023-01-07T18:11:43.596Z,2.60
2023-01-07T18:14:13.911Z,2.78
2023-01-07T18:16:43.748Z,2.50
2023-01-07T18:19:13.660Z,3.35
2023-01-07T18:21:41.898Z,3.10
2023-01-07T18:24:12.194Z,3.00
2023-01-07T18:26:42.031Z,3.53
2023-01-07T18:29:14.038Z,3.67
2023-01-07T18:31:43.736Z,3.05
2023-01-07T18:34:16.049Z,2.95
2023-01-07T18:36:44.435Z,3.55
2023-01-07T18:39:19.146Z,2.85
2023-01-07T18:41:50.219Z,2.90
2023-01-07T18:44:18.794Z,3.20
2023-01-07T18:46:47.134Z,3.50
2023-01-07T18:49:15.964Z,3.17
2023-01-07T18:51:44.070Z,3.13
2023-01-07T18:54:12.322Z,3.03
2023-01-07T18:56:40.387Z,2.67
2023-01-07T18:59:09.913Z,3.00
2023-01-07T19:01:38.406Z,3.13
2023-01-07T19:04:06.876Z,2.97
2023-01-07T19:06:37.263Z,3.45
2023-01-07T19:09:05.393Z,3.47
2023-01-07T19:11:33.512Z,3.08
2023-01-07T19:14:01.907Z,3.15
2023-01-07T19:16:31.956Z,3.20
2023-01-07T19:19:00.798Z,2.90
2023-01-07T19:21:31.617Z,3.25
2023-01-07T19:24:03.635Z,3.45
2023-01-07T19:26:33.727Z,3.15
2023-01-07T19:29:02.045Z,2.80
2023-01-07T19:31:34.242Z,2.85
2023-01-07T19:34:03.217Z,3.50
2023-01-07T19:36:31.450Z,3.10
2023-01-07T19:38:59.421Z,2.83
2023-01-07T19:41:28.446Z,2.85
2023-01-07T19:43:59.687Z,2.85
2023-01-07T19:46:28.834Z,3.15
2023-01-07T19:48:58.725Z,2.92
2023-01-07T19:51:28.968Z,3.47
2023-01-07T19:53:57.076Z,2.88
2023-01-07T19:56:25.272Z,2.90
2023-01-07T19:58:54.987Z,3.03
2023-01-07T20:01:26.676Z,2.75
2023-01-07T20:03:56.147Z,2.80
2023-01-07T20:06:28.101Z,2.58
2023-01-07T20:08:58.516Z,3.03
2023-01-07T20:11:26.794Z,2.80
2023-01-07T20:13:54.976Z,2.90
2023-01-07T20:16:25.012Z,3.30
2023-01-07T20:18:54.910Z,2.85
2023-01-07T20:21:27.726Z,3.03
2023-01-07T20:23:56.451Z,3.38
2023-01-07T20:26:25.956Z,2.88
2023-01-07T20:28:55.951Z,2.85
2023-01-07T20:31:26.423Z,3.17
2023-01-07T20:33:56.236Z,2.70
2023-01-07T20:36:25.826Z,3.30
2023-01-07T20:38:55.684Z,3.05
2023-01-07T20:41:25.589Z,3.10
2023-01-07T20:43:55.438Z,3.25
2023-01-07T20:46:24.180Z,2.75
2023-01-07T20:48:52.305Z,3.58
2023-01-07T20:51:20.582Z,3.20
2023-01-07T20:53:50.592Z,3.65
2023-01-07T20:56:21.918Z,3.75
2023-01-07T20:58:50.324Z,3.70
2023-01-07T21:01:20.279Z,3.22
2023-01-07T21:03:48.623Z,3.97
2023-01-07T21:06:18.745Z,3.15
2023-01-07T21:08:47.880Z,3.80
2023-01-07T21:11:18.039Z,3.70
2023-01-07T21:13:48.248Z,3.72
2023-01-07T21:16:16.918Z,3.88
2023-01-07T21:18:45.269Z,3.92
2023-01-07T21:21:14.734Z,3.83
2023-01-07T21:23:42.947Z,4.07
2023-01-07T21:26:12.852Z,3.95
2023-01-07T21:28:41.785Z,3.97
2023-01-07T21:31:12.803Z,3.75
2023-01-07T21:33:41.467Z,3.45
2023-01-07T21:36:10.473Z,3.65
2023-01-07T21:38:38.838Z,3.13
2023-01-07T21:41:08.754Z,3.65
2023-01-07T21:43:36.973Z,4.20
2023-01-07T21:46:06.422Z,3.72
2023-01-07T21:48:37.392Z,3.90
2023-01-07T21:51:07.688Z,3.90
2023-01-07T21:53:36.477Z,3.67
2023-01-07T21:56:06.429Z,4.43
2023-01-07T21:58:35.518Z,4.28
2023-01-07T22:01:04.288Z,4.25
2023-01-07T22:03:32.428Z,4.20
2023-01-07T22:06:03.531Z,4.50
2023-01-07T22:08:31.731Z,4.25
2023-01-07T22:10:59.885Z,4.05
2023-01-07T22:13:28.235Z,3.90
2023-01-07T22:15:56.903Z,4.47
2023-01-07T22:18:25.065Z,4.13
2023-01-07T22:20:54.704Z,4.20
2023-01-07T22:23:26.849Z,3.85
2023-01-07T22:25:54.992Z,4.30
2023-01-07T22:28:24.269Z,4.68
2023-01-07T22:30:54.557Z,4.18
2023-01-07T22:33:23.308Z,4.22
2023-01-07T22:35:51.644Z,4.22
2023-01-07T22:38:20.674Z,4.63
2023-01-07T22:40:50.267Z,4.15
2023-01-07T22:43:20.911Z,4.13
2023-01-07T22:45:52.334Z,4.72
2023-01-07T22:48:23.910Z,4.33
2023-01-07T22:50:53.058Z,4.55
2023-01-07T22:53:21.196Z,4.18
2023-01-07T22:55:50.844Z,4.20
2023-01-07T22:58:19.243Z,3.83
2023-01-07T23:00:53.688Z,3.80
2023-01-07T23:03:23.801Z,3.88
2023-01-07T23:05:52.197Z,4.78
2023-01-07T23:08:20.523Z,4.60
2023-01-07T23:10:50.134Z,4.13
2023-01-07T23:13:18.410Z,3.60
2023-01-07T23:15:46.414Z,4.38
2023-01-07T23:18:14.688Z,4.30
2023-01-07T23:20:44.140Z,3.70
2023-01-07T23:23:13.786Z,4.10
2023-01-07T23:25:46.175Z,4.10
2023-01-07T23:30:44.150Z,3.80
2023-01-07T23:33:12.560Z,3.97
2023-01-07T23:35:40.844Z,3.35
2023-01-07T23:38:09.179Z,3.58
2023-01-07T23:40:37.450Z,3.90
2023-01-07T23:43:05.468Z,3.45
2023-01-07T23:45:34.926Z,3.40
2023-01-07T23:48:02.962Z,3.72
2023-01-07T23:50:31.522Z,3.65
2023-01-07T23:52:59.587Z,3.95
2023-01-07T23:55:29.070Z,4.45
2023-01-07T23:57:57.099Z,3.85
